Mc Girk, Missouri
Current Conditions -  °F | °C
As of 10:53 AM on Thursday 30 Oct 2014 (Local Time) from KJEF Reporting Station
Light Rain Light Rain  
Wind Chill: 46°   Ceiling: 9000
Heat Index: 49°   Visibility: 10mi
Dew Point: 37°   Wind: 7mph
Humidity: 64%   Direction: 110°ESE
Pressure: 30.09"   Gusts: NA
Location:  38.6111°N, 92.4808°W
Report Text: KJEF 301553Z 11006KT 10SM -RA FEW070 BKN090 OVC110 09/03 A3009 RMK AO2 RAB52 SLP180 P0000 T00940028
Loading
Personal Weather Stations






























Interactive Weather Map New forecast layout! Learn more

10-Day Weather Forecast

Advertisements
Track Severe Weather on mobile